createdAt,value
2022-10-20T00:01:24.817Z,39.35
2022-10-20T00:03:54.983Z,35.78
2022-10-20T00:06:25.393Z,33.58
2022-10-20T00:08:53.795Z,32.90
2022-10-20T00:11:22.411Z,33.47
2022-10-20T00:13:51.467Z,33.70
2022-10-20T00:16:19.074Z,34.28
2022-10-20T00:18:46.382Z,33.95
2022-10-20T00:21:18.702Z,32.38
2022-10-20T00:23:46.114Z,32.72
2022-10-20T00:26:16.271Z,30.88
2022-10-20T00:28:45.366Z,29.13
2022-10-20T00:31:13.237Z,28.70
2022-10-20T00:33:40.960Z,30.98
2022-10-20T00:36:16.844Z,28.95
2022-10-20T00:38:45.227Z,27.85
2022-10-20T00:41:14.640Z,27.92
2022-10-20T00:43:55.708Z,28.63
2022-10-20T00:46:25.715Z,28.33
2022-10-20T00:48:56.523Z,29.15
2022-10-20T00:51:30.349Z,27.40
2022-10-20T00:54:12.072Z,38.38
2022-10-20T00:56:42.660Z,33.40
2022-10-20T00:59:12.153Z,28.08
2022-10-20T01:01:40.248Z,26.10
2022-10-20T01:04:07.820Z,26.50
2022-10-20T01:06:35.456Z,28.08
2022-10-20T01:09:05.902Z,26.73
2022-10-20T01:12:08.207Z,28.70
2022-10-20T01:14:44.102Z,25.63
2022-10-20T01:17:41.370Z,26.23
2022-10-20T01:20:46.379Z,24.95
2022-10-20T01:23:32.562Z,24.08
2022-10-20T01:26:27.652Z,25.20
2022-10-20T01:29:00.931Z,24.63
2022-10-20T01:31:45.007Z,24.85
2022-10-20T01:34:27.808Z,25.80
2022-10-20T01:36:59.933Z,25.73
2022-10-20T01:39:47.389Z,25.70
2022-10-20T01:42:19.781Z,25.50
2022-10-20T01:44:48.372Z,30.00
2022-10-20T01:47:16.730Z,33.67
2022-10-20T01:49:46.407Z,28.23
2022-10-20T01:52:14.304Z,28.00
2022-10-20T01:54:41.627Z,29.27
2022-10-20T01:57:11.342Z,29.80
2022-10-20T02:00:03.832Z,28.90
2022-10-20T02:02:42.049Z,28.58
2022-10-20T02:05:11.802Z,27.23
2022-10-20T02:07:39.916Z,31.15
2022-10-20T02:10:20.374Z,29.77
2022-10-20T02:12:51.383Z,43.25
2022-10-20T02:15:23.680Z,29.58
2022-10-20T02:17:59.360Z,29.15
2022-10-20T02:20:29.702Z,31.45
2022-10-20T02:23:00.984Z,27.35
2022-10-20T02:25:29.928Z,27.05
2022-10-20T02:30:31.477Z,28.35
2022-10-20T02:32:59.143Z,28.83
2022-10-20T02:35:30.291Z,29.23
2022-10-20T02:37:58.368Z,28.45
2022-10-20T02:40:26.445Z,27.50
2022-10-20T02:42:54.104Z,27.92
2022-10-20T02:45:21.507Z,28.63
2022-10-20T02:47:48.814Z,27.90
2022-10-20T02:50:17.244Z,28.15
2022-10-20T02:52:46.164Z,28.27
2022-10-20T02:55:13.770Z,27.63
2022-10-20T02:57:41.151Z,27.35
2022-10-20T03:00:09.325Z,29.45
2022-10-20T03:02:36.619Z,28.25
2022-10-20T03:05:04.273Z,28.85
2022-10-20T03:07:31.835Z,28.67
2022-10-20T03:09:59.243Z,26.52
2022-10-20T03:12:28.909Z,26.58
2022-10-20T03:14:58.832Z,27.33
2022-10-20T03:17:28.736Z,25.90
2022-10-20T03:19:56.097Z,25.00
2022-10-20T03:22:23.656Z,25.83
2022-10-20T03:24:51.518Z,26.42
2022-10-20T03:27:18.946Z,26.33
2022-10-20T03:29:46.501Z,25.45
2022-10-20T03:32:20.140Z,25.50
2022-10-20T03:34:47.490Z,26.73
2022-10-20T03:37:14.845Z,26.08
2022-10-20T03:39:42.682Z,24.98
2022-10-20T03:42:10.033Z,25.40
2022-10-20T03:44:38.752Z,27.52
2022-10-20T03:47:06.121Z,23.92
2022-10-20T03:49:37.456Z,25.05
2022-10-20T03:52:05.130Z,25.00
2022-10-20T03:54:35.832Z,23.45
2022-10-20T03:57:07.830Z,23.05
2022-10-20T03:59:35.451Z,62.40
2022-10-20T04:02:03.092Z,30.95
2022-10-20T04:04:30.614Z,26.17
2022-10-20T04:07:16.567Z,24.85
2022-10-20T04:09:43.852Z,24.55
2022-10-20T04:12:11.316Z,23.70
2022-10-20T04:14:39.369Z,22.45
2022-10-20T04:17:06.753Z,22.45
2022-10-20T04:19:34.496Z,23.27
2022-10-20T04:22:01.763Z,22.80
2022-10-20T04:24:29.983Z,23.42
2022-10-20T04:26:57.551Z,22.35
2022-10-20T04:29:25.164Z,24.77
2022-10-20T04:31:52.670Z,22.38
2022-10-20T04:34:20.051Z,22.48
2022-10-20T04:36:50.440Z,21.25
2022-10-20T04:39:17.960Z,23.52
2022-10-20T04:41:45.333Z,22.35
2022-10-20T04:44:12.645Z,22.25
2022-10-20T04:46:40.219Z,21.13
2022-10-20T04:49:08.496Z,21.23
2022-10-20T04:51:37.540Z,21.83
2022-10-20T04:56:37.416Z,20.73
2022-10-20T04:59:08.416Z,19.33
2022-10-20T05:01:39.947Z,19.65
2022-10-20T05:04:07.598Z,20.17
2022-10-20T05:06:36.021Z,19.10
2022-10-20T05:09:06.674Z,21.85
2022-10-20T05:11:37.072Z,19.58
2022-10-20T05:14:04.911Z,20.92
2022-10-20T05:16:32.219Z,18.67
2022-10-20T05:18:59.967Z,20.05
2022-10-20T05:21:29.743Z,19.52
2022-10-20T05:23:59.622Z,18.27
2022-10-20T05:26:28.600Z,18.05
2022-10-20T05:28:55.890Z,18.23
2022-10-20T05:31:23.987Z,18.65
2022-10-20T05:33:54.707Z,17.90
2022-10-20T05:36:24.662Z,18.10
2022-10-20T05:38:53.906Z,18.73
2022-10-20T05:41:24.595Z,19.08
2022-10-20T05:44:00.104Z,18.75
2022-10-20T05:46:34.546Z,18.48
2022-10-20T05:49:03.732Z,18.45
2022-10-20T05:51:34.901Z,18.38
2022-10-20T05:54:03.713Z,20.40
2022-10-20T05:56:31.953Z,16.92
2022-10-20T05:58:59.192Z,16.17
2022-10-20T06:01:47.754Z,16.35
2022-10-20T06:04:23.374Z,12.02
2022-10-20T06:06:54.363Z,10.65
2022-10-20T06:09:24.595Z,13.25
2022-10-20T06:11:54.506Z,7.82
2022-10-20T06:14:23.753Z,6.45
2022-10-20T06:16:52.493Z,4.82
2022-10-20T06:19:20.752Z,5.20
2022-10-20T06:21:50.273Z,3.10
2022-10-20T06:24:18.773Z,2.95
2022-10-20T06:26:49.284Z,3.50
2022-10-20T06:29:19.374Z,3.03
2022-10-20T06:31:48.870Z,3.60
2022-10-20T06:34:21.252Z,3.53
2022-10-20T06:36:49.579Z,4.55
2022-10-20T06:39:19.577Z,4.70
2022-10-20T06:41:50.314Z,5.20
2022-10-20T06:44:24.696Z,4.70
2022-10-20T06:46:53.989Z,5.80
2022-10-20T06:49:24.159Z,5.70
2022-10-20T06:51:51.513Z,6.40
2022-10-20T06:54:21.931Z,9.23
2022-10-20T06:57:03.823Z,8.43
2022-10-20T06:59:31.374Z,9.05
2022-10-20T07:03:02.556Z,6.90
2022-10-20T07:05:35.440Z,7.28
2022-10-20T07:08:03.496Z,8.13
2022-10-20T07:10:34.087Z,5.60
2022-10-20T07:13:02.365Z,6.75
2022-10-20T07:38:48.794Z,1.88
2022-10-20T07:41:16.092Z,1.67
2022-10-20T07:43:43.764Z,1.40
2022-10-20T07:46:14.949Z,1.60
2022-10-20T07:48:42.360Z,1.90
2022-10-20T07:51:30.218Z,1.77
2022-10-20T07:54:03.437Z,1.92
2022-10-20T07:56:40.959Z,1.80
2022-10-20T07:59:09.686Z,2.03
2022-10-20T08:01:38.762Z,2.00
2022-10-20T08:04:09.074Z,1.83
2022-10-20T08:06:41.400Z,1.55
2022-10-20T08:09:09.963Z,1.90
2022-10-20T08:11:39.394Z,3.97
2022-10-20T08:14:08.200Z,1.80
2022-10-20T08:16:43.251Z,2.30
2022-10-20T08:19:16.732Z,1.40
2022-10-20T08:21:44.240Z,1.45
2022-10-20T08:24:11.707Z,1.70
2022-10-20T08:26:39.875Z,1.67
2022-10-20T08:29:09.781Z,1.42
2022-10-20T08:31:39.202Z,1.70
2022-10-20T08:34:06.417Z,1.88
2022-10-20T08:36:34.061Z,1.55
2022-10-20T08:39:05.044Z,1.60
2022-10-20T08:42:02.522Z,1.40
2022-10-20T08:44:28.375Z,0.90
2022-10-20T08:46:56.189Z,0.90
2022-10-20T08:49:26.429Z,3.30
2022-10-20T08:51:55.154Z,1.00
2022-10-20T08:54:22.546Z,1.00
2022-10-20T08:56:50.017Z,0.90
2022-10-20T08:59:30.379Z,1.20
2022-10-20T09:01:58.080Z,0.80
2022-10-20T09:04:40.739Z,0.82
2022-10-20T09:07:23.727Z,0.80
2022-10-20T09:09:51.425Z,1.00
2022-10-20T09:12:20.270Z,1.02
2022-10-20T09:14:47.635Z,0.73
2022-10-20T09:17:17.238Z,0.80
2022-10-20T09:19:52.755Z,0.70
2022-10-20T09:22:22.325Z,0.80
2022-10-20T09:24:59.322Z,1.00
2022-10-20T09:27:34.603Z,0.85
2022-10-20T09:33:28.442Z,0.98
2022-10-20T09:36:11.949Z,1.23
2022-10-20T09:38:47.234Z,0.85
2022-10-20T09:41:21.330Z,1.00
2022-10-20T09:43:58.260Z,1.20
2022-10-20T09:46:35.081Z,1.45
2022-10-20T09:49:21.121Z,1.58
2022-10-20T09:51:48.576Z,1.17
2022-10-20T09:54:21.335Z,0.95
2022-10-20T09:56:52.928Z,1.00
2022-10-20T09:59:32.526Z,0.82
2022-10-20T10:02:02.288Z,0.80
2022-10-20T10:04:43.301Z,0.80
2022-10-20T10:07:22.757Z,0.90
2022-10-20T10:10:08.664Z,0.95
2022-10-20T10:12:36.611Z,1.00
2022-10-20T10:15:28.010Z,1.00
2022-10-20T10:17:56.830Z,1.13
2022-10-20T10:20:38.514Z,1.00
2022-10-20T10:23:25.146Z,1.23
2022-10-20T10:25:53.405Z,0.90
2022-10-20T10:28:29.529Z,1.30
2022-10-20T10:31:20.946Z,1.30
2022-10-20T10:33:51.347Z,1.33
2022-10-20T10:36:24.399Z,1.40
2022-10-20T10:38:54.836Z,1.13
2022-10-20T10:41:55.402Z,0.90
2022-10-20T10:45:46.698Z,1.20
2022-10-20T10:48:42.388Z,1.20
2022-10-20T10:51:28.049Z,1.20
2022-10-20T10:53:59.037Z,1.00
2022-10-20T10:56:34.270Z,0.80
2022-10-20T10:59:06.492Z,0.70
2022-10-20T11:01:53.293Z,0.90
2022-10-20T11:20:10.981Z,3.65
2022-10-20T11:22:57.433Z,3.53
2022-10-20T11:25:38.637Z,3.20
2022-10-20T11:28:32.700Z,3.28
2022-10-20T11:31:00.688Z,3.00
2022-10-20T11:33:44.734Z,1.65
2022-10-20T11:36:19.761Z,2.53
2022-10-20T11:38:55.245Z,3.13
2022-10-20T11:44:25.690Z,3.22
2022-10-20T11:47:06.111Z,2.55
2022-10-20T11:49:34.032Z,2.67
2022-10-20T11:52:23.505Z,2.50
2022-10-20T11:55:14.762Z,1.65
2022-10-20T11:57:42.616Z,1.90
2022-10-20T12:03:08.643Z,2.22
2022-10-20T12:05:47.887Z,1.75
2022-10-20T12:08:37.514Z,1.98
2022-10-20T12:11:23.788Z,3.60
2022-10-20T12:14:03.098Z,3.03
2022-10-20T12:16:54.580Z,2.40
2022-10-20T12:19:34.420Z,2.08
2022-10-20T12:22:06.906Z,4.10
2022-10-20T12:24:38.230Z,3.67
2022-10-20T12:30:39.172Z,4.30
2022-10-20T12:33:38.368Z,3.95
2022-10-20T12:36:18.034Z,3.25
2022-10-20T12:39:27.807Z,4.50
2022-10-20T12:41:59.744Z,4.40
2022-10-20T12:44:29.892Z,4.55
2022-10-20T12:47:06.958Z,5.00
2022-10-20T12:49:40.723Z,7.13
2022-10-20T12:52:36.901Z,8.43
2022-10-20T12:55:26.004Z,9.60
2022-10-20T12:58:24.108Z,10.93
2022-10-20T13:10:00.416Z,10.05
2022-10-20T13:12:40.045Z,8.32
2022-10-20T13:15:13.716Z,6.90
2022-10-20T13:18:01.991Z,6.82
2022-10-20T13:21:06.789Z,6.25
2022-10-20T13:24:06.103Z,5.53
2022-10-20T13:27:09.537Z,5.45
2022-10-20T13:30:00.317Z,4.95
2022-10-20T13:33:02.042Z,5.00
2022-10-20T13:35:43.070Z,5.13
2022-10-20T13:38:17.756Z,5.07
2022-10-20T13:40:50.691Z,5.22
2022-10-20T13:43:58.265Z,5.00
2022-10-20T13:46:33.415Z,4.93
2022-10-20T13:49:17.431Z,5.03
2022-10-20T13:51:52.451Z,4.55
2022-10-20T13:54:36.339Z,4.65
2022-10-20T13:57:08.932Z,4.68
2022-10-20T13:59:55.586Z,4.53
2022-10-20T14:02:33.814Z,4.43
2022-10-20T14:05:11.892Z,4.50
2022-10-20T14:07:42.431Z,4.07
2022-10-20T14:10:33.114Z,4.05
2022-10-20T14:13:01.742Z,3.83
2022-10-20T14:15:33.337Z,4.60
2022-10-20T14:18:07.423Z,4.38
